sensor_id;sensor_type;location;lat;lon;timestamp;temperature;humidity
652;DHT22;310;48.490;9.200;2023-02-13T00:02:11;5.70;40.20
652;DHT22;310;48.490;9.200;2023-02-13T00:04:38;5.60;40.60
652;DHT22;310;48.490;9.200;2023-02-13T00:07:04;5.60;39.80
652;DHT22;310;48.490;9.200;2023-02-13T00:09:29;5.70;39.60
652;DHT22;310;48.490;9.200;2023-02-13T00:11:55;5.50;39.70
652;DHT22;310;48.490;9.200;2023-02-13T00:14:21;5.60;40.00
652;DHT22;310;48.490;9.200;2023-02-13T00:16:46;5.80;39.70
652;DHT22;310;48.490;9.200;2023-02-13T00:19:12;5.50;39.50
652;DHT22;310;48.490;9.200;2023-02-13T00:21:37;5.50;40.70
652;DHT22;310;48.490;9.200;2023-02-13T00:24:03;5.50;40.20
652;DHT22;310;48.490;9.200;2023-02-13T00:26:29;5.40;40.80
652;DHT22;310;48.490;9.200;2023-02-13T00:28:55;5.40;41.30
652;DHT22;310;48.490;9.200;2023-02-13T00:31:21;5.30;41.10
652;DHT22;310;48.490;9.200;2023-02-13T00:33:47;5.50;41.50
652;DHT22;310;48.490;9.200;2023-02-13T00:36:16;5.40;41.50
652;DHT22;310;48.490;9.200;2023-02-13T00:38:42;5.30;41.30
652;DHT22;310;48.490;9.200;2023-02-13T00:41:09;5.30;41.30
652;DHT22;310;48.490;9.200;2023-02-13T00:43:35;5.10;41.70
652;DHT22;310;48.490;9.200;2023-02-13T00:46:01;5.40;40.60
652;DHT22;310;48.490;9.200;2023-02-13T00:48:28;5.20;41.00
652;DHT22;310;48.490;9.200;2023-02-13T00:50:54;5.00;41.50
652;DHT22;310;48.490;9.200;2023-02-13T00:53:21;5.30;41.00
652;DHT22;310;48.490;9.200;2023-02-13T00:55:47;5.40;40.50
652;DHT22;310;48.490;9.200;2023-02-13T00:58:13;5.40;40.40
652;DHT22;310;48.490;9.200;2023-02-13T01:00:39;5.30;40.50
652;DHT22;310;48.490;9.200;2023-02-13T01:03:05;5.20;40.30
652;DHT22;310;48.490;9.200;2023-02-13T01:05:32;5.10;40.50
652;DHT22;310;48.490;9.200;2023-02-13T01:07:57;5.10;40.20
652;DHT22;310;48.490;9.200;2023-02-13T01:10:23;5.20;40.30
652;DHT22;310;48.490;9.200;2023-02-13T01:12:49;5.20;40.70
652;DHT22;310;48.490;9.200;2023-02-13T01:15:14;5.20;40.80
652;DHT22;310;48.490;9.200;2023-02-13T01:17:40;5.20;40.70
652;DHT22;310;48.490;9.200;2023-02-13T01:20:07;5.10;40.90
652;DHT22;310;48.490;9.200;2023-02-13T01:22:33;5.30;40.30
652;DHT22;310;48.490;9.200;2023-02-13T01:24:58;5.40;40.70
652;DHT22;310;48.490;9.200;2023-02-13T01:27:26;4.90;43.20
652;DHT22;310;48.490;9.200;2023-02-13T01:29:51;4.30;45.80
652;DHT22;310;48.490;9.200;2023-02-13T01:32:17;4.20;46.10
652;DHT22;310;48.490;9.200;2023-02-13T01:34:43;4.50;45.50
652;DHT22;310;48.490;9.200;2023-02-13T01:37:08;4.70;45.00
652;DHT22;310;48.490;9.200;2023-02-13T01:39:34;4.90;43.40
652;DHT22;310;48.490;9.200;2023-02-13T01:41:59;5.00;42.50
652;DHT22;310;48.490;9.200;2023-02-13T01:44:49;5.10;41.90
652;DHT22;310;48.490;9.200;2023-02-13T01:47:23;5.20;41.20
652;DHT22;310;48.490;9.200;2023-02-13T01:49:58;5.00;41.30
652;DHT22;310;48.490;9.200;2023-02-13T01:52:27;5.20;40.80
652;DHT22;310;48.490;9.200;2023-02-13T01:54:53;5.30;40.20
652;DHT22;310;48.490;9.200;2023-02-13T01:57:21;5.10;40.70
652;DHT22;310;48.490;9.200;2023-02-13T01:59:52;5.00;40.50
652;DHT22;310;48.490;9.200;2023-02-13T02:02:18;5.00;41.00
652;DHT22;310;48.490;9.200;2023-02-13T02:04:45;5.20;41.40
652;DHT22;310;48.490;9.200;2023-02-13T02:07:25;5.10;39.80
652;DHT22;310;48.490;9.200;2023-02-13T02:09:54;5.10;40.00
652;DHT22;310;48.490;9.200;2023-02-13T02:12:29;5.20;40.00
652;DHT22;310;48.490;9.200;2023-02-13T02:14:58;5.10;39.80
652;DHT22;310;48.490;9.200;2023-02-13T02:17:25;5.00;40.40
652;DHT22;310;48.490;9.200;2023-02-13T02:20:12;5.10;39.90
652;DHT22;310;48.490;9.200;2023-02-13T02:39:15;4.80;40.20
652;DHT22;310;48.490;9.200;2023-02-13T02:50:22;4.30;42.00
652;DHT22;310;48.490;9.200;2023-02-13T02:55:45;4.40;41.70
652;DHT22;310;48.490;9.200;2023-02-13T03:01:14;4.10;42.90
652;DHT22;310;48.490;9.200;2023-02-13T03:03:59;4.20;42.30
652;DHT22;310;48.490;9.200;2023-02-13T03:06:57;4.40;42.10
652;DHT22;310;48.490;9.200;2023-02-13T03:09:28;4.10;41.00
652;DHT22;310;48.490;9.200;2023-02-13T03:12:18;4.30;43.00
652;DHT22;310;48.490;9.200;2023-02-13T03:15:03;4.30;43.80
652;DHT22;310;48.490;9.200;2023-02-13T03:17:29;4.40;43.20
652;DHT22;310;48.490;9.200;2023-02-13T03:20:31;4.40;43.80
652;DHT22;310;48.490;9.200;2023-02-13T03:23:42;4.40;43.90
652;DHT22;310;48.490;9.200;2023-02-13T03:31:53;4.40;42.70
652;DHT22;310;48.490;9.200;2023-02-13T03:34:34;4.50;42.90
652;DHT22;310;48.490;9.200;2023-02-13T03:37:30;4.50;43.00
652;DHT22;310;48.490;9.200;2023-02-13T03:40:28;4.40;43.60
652;DHT22;310;48.490;9.200;2023-02-13T03:43:09;4.40;44.10
652;DHT22;310;48.490;9.200;2023-02-13T03:45:38;4.60;43.10
652;DHT22;310;48.490;9.200;2023-02-13T03:48:32;4.50;42.90
652;DHT22;310;48.490;9.200;2023-02-13T03:51:41;4.40;43.60
652;DHT22;310;48.490;9.200;2023-02-13T03:54:34;4.50;43.30
652;DHT22;310;48.490;9.200;2023-02-13T03:57:23;4.30;42.90
652;DHT22;310;48.490;9.200;2023-02-13T04:00:11;4.40;43.00
652;DHT22;310;48.490;9.200;2023-02-13T04:02:56;4.60;41.90
652;DHT22;310;48.490;9.200;2023-02-13T04:05:26;4.50;41.70
652;DHT22;310;48.490;9.200;2023-02-13T04:07:53;4.60;41.10
652;DHT22;310;48.490;9.200;2023-02-13T04:10:19;4.50;41.10
652;DHT22;310;48.490;9.200;2023-02-13T04:13:12;4.60;41.20
652;DHT22;310;48.490;9.200;2023-02-13T04:16:20;4.60;40.60
652;DHT22;310;48.490;9.200;2023-02-13T04:18:47;4.30;41.70
652;DHT22;310;48.490;9.200;2023-02-13T04:21:14;4.20;42.50
652;DHT22;310;48.490;9.200;2023-02-13T04:23:39;4.10;43.00
652;DHT22;310;48.490;9.200;2023-02-13T04:26:08;3.60;44.50
652;DHT22;310;48.490;9.200;2023-02-13T04:28:37;3.40;45.80
652;DHT22;310;48.490;9.200;2023-02-13T04:31:02;3.50;45.30
652;DHT22;310;48.490;9.200;2023-02-13T04:33:28;3.50;45.20
652;DHT22;310;48.490;9.200;2023-02-13T04:35:53;3.10;46.10
652;DHT22;310;48.490;9.200;2023-02-13T04:38:19;2.80;48.40
652;DHT22;310;48.490;9.200;2023-02-13T04:40:45;2.90;48.00
652;DHT22;310;48.490;9.200;2023-02-13T04:43:10;3.00;48.10
652;DHT22;310;48.490;9.200;2023-02-13T04:45:36;2.80;48.20
652;DHT22;310;48.490;9.200;2023-02-13T04:48:01;3.00;47.10
652;DHT22;310;48.490;9.200;2023-02-13T04:50:27;3.40;45.40
652;DHT22;310;48.490;9.200;2023-02-13T04:52:54;3.70;44.10
652;DHT22;310;48.490;9.200;2023-02-13T04:55:21;3.50;42.80
652;DHT22;310;48.490;9.200;2023-02-13T04:57:47;3.10;44.90
652;DHT22;310;48.490;9.200;2023-02-13T05:00:12;3.40;43.90
652;DHT22;310;48.490;9.200;2023-02-13T05:02:38;3.60;43.10
652;DHT22;310;48.490;9.200;2023-02-13T05:05:04;3.30;43.80
652;DHT22;310;48.490;9.200;2023-02-13T05:07:30;3.20;44.60
652;DHT22;310;48.490;9.200;2023-02-13T05:09:55;3.00;45.20
652;DHT22;310;48.490;9.200;2023-02-13T05:12:21;3.30;44.60
652;DHT22;310;48.490;9.200;2023-02-13T05:14:47;3.20;43.90
652;DHT22;310;48.490;9.200;2023-02-13T05:17:12;3.30;43.70
652;DHT22;310;48.490;9.200;2023-02-13T05:19:38;3.20;43.70
652;DHT22;310;48.490;9.200;2023-02-13T05:22:03;3.10;44.50
652;DHT22;310;48.490;9.200;2023-02-13T05:24:47;3.30;43.70
652;DHT22;310;48.490;9.200;2023-02-13T05:27:13;3.40;43.00
652;DHT22;310;48.490;9.200;2023-02-13T05:29:38;3.50;42.30
652;DHT22;310;48.490;9.200;2023-02-13T05:32:04;3.60;41.90
652;DHT22;310;48.490;9.200;2023-02-13T05:34:30;3.70;41.50
652;DHT22;310;48.490;9.200;2023-02-13T05:36:55;3.60;41.80
652;DHT22;310;48.490;9.200;2023-02-13T05:39:21;3.60;42.90
652;DHT22;310;48.490;9.200;2023-02-13T05:41:47;3.70;42.40
652;DHT22;310;48.490;9.200;2023-02-13T05:44:13;3.70;40.80
652;DHT22;310;48.490;9.200;2023-02-13T05:46:41;3.60;41.30
652;DHT22;310;48.490;9.200;2023-02-13T05:49:08;3.50;41.70
652;DHT22;310;48.490;9.200;2023-02-13T05:51:34;3.60;40.80
652;DHT22;310;48.490;9.200;2023-02-13T05:53:59;3.60;40.70
652;DHT22;310;48.490;9.200;2023-02-13T05:56:25;3.40;41.50
652;DHT22;310;48.490;9.200;2023-02-13T05:58:52;3.60;41.10
652;DHT22;310;48.490;9.200;2023-02-13T06:01:18;3.30;41.50
652;DHT22;310;48.490;9.200;2023-02-13T06:03:43;3.20;41.70
652;DHT22;310;48.490;9.200;2023-02-13T06:06:09;3.50;41.40
652;DHT22;310;48.490;9.200;2023-02-13T06:08:35;3.50;41.30
652;DHT22;310;48.490;9.200;2023-02-13T06:11:02;3.50;40.90
652;DHT22;310;48.490;9.200;2023-02-13T06:13:28;3.70;40.30
652;DHT22;310;48.490;9.200;2023-02-13T06:15:53;4.00;39.40
652;DHT22;310;48.490;9.200;2023-02-13T06:18:19;3.90;39.30
652;DHT22;310;48.490;9.200;2023-02-13T06:20:44;3.80;39.80
652;DHT22;310;48.490;9.200;2023-02-13T06:23:10;3.40;41.40
652;DHT22;310;48.490;9.200;2023-02-13T06:25:36;3.00;43.50
652;DHT22;310;48.490;9.200;2023-02-13T06:28:02;2.70;45.40
652;DHT22;310;48.490;9.200;2023-02-13T06:30:29;2.90;44.60
652;DHT22;310;48.490;9.200;2023-02-13T06:32:54;3.00;44.50
652;DHT22;310;48.490;9.200;2023-02-13T06:35:20;3.30;43.30
652;DHT22;310;48.490;9.200;2023-02-13T06:37:46;3.40;42.40
652;DHT22;310;48.490;9.200;2023-02-13T06:40:13;3.60;41.50
652;DHT22;310;48.490;9.200;2023-02-13T06:42:41;3.70;41.10
652;DHT22;310;48.490;9.200;2023-02-13T06:45:07;3.70;40.50
652;DHT22;310;48.490;9.200;2023-02-13T06:47:33;3.80;40.10
652;DHT22;310;48.490;9.200;2023-02-13T06:49:59;3.70;40.10
652;DHT22;310;48.490;9.200;2023-02-13T06:52:24;3.90;40.10
652;DHT22;310;48.490;9.200;2023-02-13T06:54:50;3.90;40.00
652;DHT22;310;48.490;9.200;2023-02-13T06:57:16;3.90;39.40
652;DHT22;310;48.490;9.200;2023-02-13T06:59:42;3.70;39.90
652;DHT22;310;48.490;9.200;2023-02-13T07:02:11;3.90;39.10
652;DHT22;310;48.490;9.200;2023-02-13T07:04:37;3.80;39.50
652;DHT22;310;48.490;9.200;2023-02-13T07:07:03;3.60;40.10
652;DHT22;310;48.490;9.200;2023-02-13T07:09:30;3.70;40.20
652;DHT22;310;48.490;9.200;2023-02-13T07:11:56;3.70;40.00
652;DHT22;310;48.490;9.200;2023-02-13T07:14:21;3.40;40.60
652;DHT22;310;48.490;9.200;2023-02-13T07:16:47;3.50;41.20
652;DHT22;310;48.490;9.200;2023-02-13T07:19:12;3.50;40.60
652;DHT22;310;48.490;9.200;2023-02-13T07:21:38;3.50;41.00
652;DHT22;310;48.490;9.200;2023-02-13T07:24:04;3.60;40.90
652;DHT22;310;48.490;9.200;2023-02-13T07:26:30;3.60;41.00
652;DHT22;310;48.490;9.200;2023-02-13T07:28:55;3.80;41.00
652;DHT22;310;48.490;9.200;2023-02-13T07:31:21;3.80;40.90
652;DHT22;310;48.490;9.200;2023-02-13T07:33:50;3.80;40.80
652;DHT22;310;48.490;9.200;2023-02-13T07:36:15;3.80;41.00
652;DHT22;310;48.490;9.200;2023-02-13T07:38:41;3.80;41.00
652;DHT22;310;48.490;9.200;2023-02-13T07:41:07;3.80;40.90
652;DHT22;310;48.490;9.200;2023-02-13T07:43:33;3.90;40.80
652;DHT22;310;48.490;9.200;2023-02-13T07:46:00;4.00;40.70
652;DHT22;310;48.490;9.200;2023-02-13T07:48:27;4.00;40.80
652;DHT22;310;48.490;9.200;2023-02-13T07:50:54;4.20;40.80
652;DHT22;310;48.490;9.200;2023-02-13T07:53:20;4.30;40.50
652;DHT22;310;48.490;9.200;2023-02-13T07:55:47;4.30;40.60
652;DHT22;310;48.490;9.200;2023-02-13T07:58:12;4.00;41.00
652;DHT22;310;48.490;9.200;2023-02-13T08:00:38;3.80;42.20
652;DHT22;310;48.490;9.200;2023-02-13T08:03:03;3.60;43.20
652;DHT22;310;48.490;9.200;2023-02-13T08:05:30;3.50;43.80
652;DHT22;310;48.490;9.200;2023-02-13T08:07:56;3.40;43.90
652;DHT22;310;48.490;9.200;2023-02-13T08:10:22;3.50;44.10
652;DHT22;310;48.490;9.200;2023-02-13T08:13:07;3.60;44.00
652;DHT22;310;48.490;9.200;2023-02-13T08:15:34;3.60;44.00
652;DHT22;310;48.490;9.200;2023-02-13T08:17:59;3.40;44.90
652;DHT22;310;48.490;9.200;2023-02-13T08:20:25;3.20;46.30
652;DHT22;310;48.490;9.200;2023-02-13T08:22:51;3.30;46.60
652;DHT22;310;48.490;9.200;2023-02-13T08:25:17;3.20;46.80
652;DHT22;310;48.490;9.200;2023-02-13T08:27:44;3.20;46.80
652;DHT22;310;48.490;9.200;2023-02-13T08:30:10;3.30;47.40
652;DHT22;310;48.490;9.200;2023-02-13T08:32:36;3.20;48.00
652;DHT22;310;48.490;9.200;2023-02-13T08:35:01;3.20;48.30
652;DHT22;310;48.490;9.200;2023-02-13T08:37:27;3.10;49.10
652;DHT22;310;48.490;9.200;2023-02-13T08:39:52;3.10;49.60
652;DHT22;310;48.490;9.200;2023-02-13T08:42:18;3.20;50.00
652;DHT22;310;48.490;9.200;2023-02-13T08:44:44;3.40;49.60
652;DHT22;310;48.490;9.200;2023-02-13T08:47:10;3.50;49.40
652;DHT22;310;48.490;9.200;2023-02-13T08:49:35;3.20;50.50
652;DHT22;310;48.490;9.200;2023-02-13T08:52:02;3.10;52.30
652;DHT22;310;48.490;9.200;2023-02-13T08:54:29;3.20;52.30
652;DHT22;310;48.490;9.200;2023-02-13T08:56:54;3.20;53.30
652;DHT22;310;48.490;9.200;2023-02-13T08:59:20;3.40;54.20
652;DHT22;310;48.490;9.200;2023-02-13T09:01:46;3.70;54.30
652;DHT22;310;48.490;9.200;2023-02-13T09:04:12;3.60;52.60
652;DHT22;310;48.490;9.200;2023-02-13T09:06:40;3.50;53.00
652;DHT22;310;48.490;9.200;2023-02-13T09:09:06;3.60;53.40
652;DHT22;310;48.490;9.200;2023-02-13T09:11:32;3.60;53.30
652;DHT22;310;48.490;9.200;2023-02-13T09:13:58;3.40;56.00
652;DHT22;310;48.490;9.200;2023-02-13T09:16:23;3.40;55.90
652;DHT22;310;48.490;9.200;2023-02-13T09:18:50;3.90;53.60
652;DHT22;310;48.490;9.200;2023-02-13T09:21:16;3.90;53.30
652;DHT22;310;48.490;9.200;2023-02-13T09:23:42;4.00;53.00
652;DHT22;310;48.490;9.200;2023-02-13T09:26:10;4.30;52.10
652;DHT22;310;48.490;9.200;2023-02-13T09:28:36;4.20;52.80
652;DHT22;310;48.490;9.200;2023-02-13T09:31:17;3.90;54.60
652;DHT22;310;48.490;9.200;2023-02-13T09:33:44;4.00;54.70
652;DHT22;310;48.490;9.200;2023-02-13T09:36:12;4.10;54.90
652;DHT22;310;48.490;9.200;2023-02-13T09:38:43;4.30;55.00
652;DHT22;310;48.490;9.200;2023-02-13T09:41:18;4.30;54.50
652;DHT22;310;48.490;9.200;2023-02-13T09:44:00;4.50;53.10
652;DHT22;310;48.490;9.200;2023-02-13T09:46:34;4.50;53.90
652;DHT22;310;48.490;9.200;2023-02-13T09:49:11;4.30;54.60
652;DHT22;310;48.490;9.200;2023-02-13T09:51:37;4.40;54.40
652;DHT22;310;48.490;9.200;2023-02-13T09:54:07;4.80;52.60
652;DHT22;310;48.490;9.200;2023-02-13T10:16:41;5.20;51.10
652;DHT22;310;48.490;9.200;2023-02-13T10:19:26;5.10;52.50
652;DHT22;310;48.490;9.200;2023-02-13T10:22:03;5.10;52.60
652;DHT22;310;48.490;9.200;2023-02-13T10:24:43;5.60;50.70
652;DHT22;310;48.490;9.200;2023-02-13T10:27:29;6.00;48.50
652;DHT22;310;48.490;9.200;2023-02-13T10:30:07;6.20;46.50
652;DHT22;310;48.490;9.200;2023-02-13T10:32:49;6.00;47.50
652;DHT22;310;48.490;9.200;2023-02-13T10:35:28;6.00;48.50
652;DHT22;310;48.490;9.200;2023-02-13T10:37:57;6.20;47.50
652;DHT22;310;48.490;9.200;2023-02-13T10:40:32;6.50;47.20
652;DHT22;310;48.490;9.200;2023-02-13T10:43:07;6.90;45.00
652;DHT22;310;48.490;9.200;2023-02-13T10:52:08;6.50;46.90
652;DHT22;310;48.490;9.200;2023-02-13T11:02:44;7.40;43.10
652;DHT22;310;48.490;9.200;2023-02-13T11:05:24;7.60;42.90
652;DHT22;310;48.490;9.200;2023-02-13T11:07:50;8.70;39.60
652;DHT22;310;48.490;9.200;2023-02-13T11:10:18;9.70;37.80
652;DHT22;310;48.490;9.200;2023-02-13T11:12:45;10.60;33.30
652;DHT22;310;48.490;9.200;2023-02-13T11:15:30;11.90;30.00
652;DHT22;310;48.490;9.200;2023-02-13T11:18:12;12.20;29.50
652;DHT22;310;48.490;9.200;2023-02-13T11:20:41;13.20;28.10
652;DHT22;310;48.490;9.200;2023-02-13T11:23:27;13.00;28.00
652;DHT22;310;48.490;9.200;2023-02-13T11:26:03;13.20;27.70
652;DHT22;310;48.490;9.200;2023-02-13T11:28:31;12.90;28.20
652;DHT22;310;48.490;9.200;2023-02-13T11:31:34;13.00;28.10
652;DHT22;310;48.490;9.200;2023-02-13T11:34:22;14.60;25.70
652;DHT22;310;48.490;9.200;2023-02-13T11:36:52;15.50;24.60
652;DHT22;310;48.490;9.200;2023-02-13T11:39:20;15.30;25.10
652;DHT22;310;48.490;9.200;2023-02-13T11:41:47;13.70;26.50
652;DHT22;310;48.490;9.200;2023-02-13T11:44:27;13.20;29.20
652;DHT22;310;48.490;9.200;2023-02-13T11:46:58;13.40;27.90
652;DHT22;310;48.490;9.200;2023-02-13T11:49:32;13.50;27.90
652;DHT22;310;48.490;9.200;2023-02-13T11:52:05;13.00;28.50
652;DHT22;310;48.490;9.200;2023-02-13T11:54:43;13.20;28.30
652;DHT22;310;48.490;9.200;2023-02-13T11:57:19;13.50;28.50
652;DHT22;310;48.490;9.200;2023-02-13T11:59:47;14.70;26.70
652;DHT22;310;48.490;9.200;2023-02-13T12:02:26;15.00;25.40
652;DHT22;310;48.490;9.200;2023-02-13T12:05:14;15.30;25.60
652;DHT22;310;48.490;9.200;2023-02-13T12:07:40;15.30;24.70
652;DHT22;310;48.490;9.200;2023-02-13T12:13:13;15.10;25.00
652;DHT22;310;48.490;9.200;2023-02-13T12:15:42;15.60;24.10
652;DHT22;310;48.490;9.200;2023-02-13T12:18:24;15.50;24.60
652;DHT22;310;48.490;9.200;2023-02-13T12:23:27;15.00;25.40
652;DHT22;310;48.490;9.200;2023-02-13T12:26:05;16.20;24.40
652;DHT22;310;48.490;9.200;2023-02-13T12:39:40;15.60;24.20
652;DHT22;310;48.490;9.200;2023-02-13T12:42:21;14.80;25.10
652;DHT22;310;48.490;9.200;2023-02-13T12:47:21;13.30;27.00
652;DHT22;310;48.490;9.200;2023-02-13T12:52:42;13.30;27.60
652;DHT22;310;48.490;9.200;2023-02-13T12:58:17;13.60;27.40
652;DHT22;310;48.490;9.200;2023-02-13T13:09:03;13.60;27.00
652;DHT22;310;48.490;9.200;2023-02-13T13:14:33;12.80;28.40
652;DHT22;310;48.490;9.200;2023-02-13T13:22:58;12.10;29.60
652;DHT22;310;48.490;9.200;2023-02-13T13:28:14;12.50;29.80
652;DHT22;310;48.490;9.200;2023-02-13T13:30:43;13.50;27.70
652;DHT22;310;48.490;9.200;2023-02-13T13:33:17;14.70;26.70
652;DHT22;310;48.490;9.200;2023-02-13T13:38:24;16.40;23.40
652;DHT22;310;48.490;9.200;2023-02-13T13:46:34;16.20;23.60
652;DHT22;310;48.490;9.200;2023-02-13T13:49:19;16.00;23.90
652;DHT22;310;48.490;9.200;2023-02-13T13:51:46;16.00;24.40
652;DHT22;310;48.490;9.200;2023-02-13T14:07:37;18.20;21.10
652;DHT22;310;48.490;9.200;2023-02-13T14:10:04;18.40;20.30
652;DHT22;310;48.490;9.200;2023-02-13T14:14:56;19.30;19.90
652;DHT22;310;48.490;9.200;2023-02-13T14:20:22;18.30;21.00
652;DHT22;310;48.490;9.200;2023-02-13T14:22:50;19.30;19.80
652;DHT22;310;48.490;9.200;2023-02-13T14:25:26;19.00;19.30
652;DHT22;310;48.490;9.200;2023-02-13T14:27:58;19.20;19.20
652;DHT22;310;48.490;9.200;2023-02-13T14:30:27;18.70;20.00
652;DHT22;310;48.490;9.200;2023-02-13T14:32:54;19.30;18.80
652;DHT22;310;48.490;9.200;2023-02-13T14:35:26;19.80;18.40
652;DHT22;310;48.490;9.200;2023-02-13T14:37:54;20.40;18.60
652;DHT22;310;48.490;9.200;2023-02-13T14:40:43;20.00;18.10
652;DHT22;310;48.490;9.200;2023-02-13T14:45:56;19.80;18.60
652;DHT22;310;48.490;9.200;2023-02-13T14:48:38;19.20;18.60
652;DHT22;310;48.490;9.200;2023-02-13T14:51:04;18.10;20.50
652;DHT22;310;48.490;9.200;2023-02-13T14:53:51;17.10;21.40
652;DHT22;310;48.490;9.200;2023-02-13T14:56:20;16.30;23.00
652;DHT22;310;48.490;9.200;2023-02-13T14:58:53;15.50;23.30
652;DHT22;310;48.490;9.200;2023-02-13T15:01:32;15.00;24.30
652;DHT22;310;48.490;9.200;2023-02-13T15:04:28;13.30;26.60
652;DHT22;310;48.490;9.200;2023-02-13T15:06:56;12.30;28.50
652;DHT22;310;48.490;9.200;2023-02-13T15:09:37;12.00;29.70
652;DHT22;310;48.490;9.200;2023-02-13T15:14:51;11.30;30.80
652;DHT22;310;48.490;9.200;2023-02-13T15:17:25;11.00;31.80
652;DHT22;310;48.490;9.200;2023-02-13T15:19:58;10.50;32.80
652;DHT22;310;48.490;9.200;2023-02-13T15:22:35;10.50;32.80
652;DHT22;310;48.490;9.200;2023-02-13T15:25:02;10.30;33.40
652;DHT22;310;48.490;9.200;2023-02-13T15:27:31;10.20;34.00
652;DHT22;310;48.490;9.200;2023-02-13T15:30:23;10.50;33.20
652;DHT22;310;48.490;9.200;2023-02-13T15:33:00;10.10;33.80
652;DHT22;310;48.490;9.200;2023-02-13T15:35:32;9.80;36.00
652;DHT22;310;48.490;9.200;2023-02-13T15:37:59;9.70;36.50
652;DHT22;310;48.490;9.200;2023-02-13T15:40:41;9.50;36.70
652;DHT22;310;48.490;9.200;2023-02-13T15:43:21;9.20;38.10
652;DHT22;310;48.490;9.200;2023-02-13T15:45:47;9.20;38.00
652;DHT22;310;48.490;9.200;2023-02-13T15:48:15;9.20;38.40
652;DHT22;310;48.490;9.200;2023-02-13T15:50:41;9.20;38.10
652;DHT22;310;48.490;9.200;2023-02-13T15:53:13;9.20;38.70
652;DHT22;310;48.490;9.200;2023-02-13T15:55:39;9.30;37.50
652;DHT22;310;48.490;9.200;2023-02-13T15:58:05;9.00;38.70
652;DHT22;310;48.490;9.200;2023-02-13T16:00:38;8.70;39.40
652;DHT22;310;48.490;9.200;2023-02-13T16:03:06;8.80;39.30
652;DHT22;310;48.490;9.200;2023-02-13T16:05:38;8.70;39.80
652;DHT22;310;48.490;9.200;2023-02-13T16:08:29;8.30;40.70
652;DHT22;310;48.490;9.200;2023-02-13T16:14:14;7.90;42.70
652;DHT22;310;48.490;9.200;2023-02-13T16:22:00;7.70;43.60
652;DHT22;310;48.490;9.200;2023-02-13T16:24:28;7.70;43.50
652;DHT22;310;48.490;9.200;2023-02-13T16:26:54;7.90;42.70
652;DHT22;310;48.490;9.200;2023-02-13T16:29:22;7.70;43.10
652;DHT22;310;48.490;9.200;2023-02-13T16:31:49;7.70;43.60
652;DHT22;310;48.490;9.200;2023-02-13T16:34:21;7.60;43.50
652;DHT22;310;48.490;9.200;2023-02-13T16:36:48;7.60;43.80
652;DHT22;310;48.490;9.200;2023-02-13T16:39:40;7.50;44.60
652;DHT22;310;48.490;9.200;2023-02-13T16:42:16;7.60;44.90
652;DHT22;310;48.490;9.200;2023-02-13T16:44:43;7.50;44.80
652;DHT22;310;48.490;9.200;2023-02-13T16:47:25;7.30;44.30
652;DHT22;310;48.490;9.200;2023-02-13T16:49:54;7.20;44.40
652;DHT22;310;48.490;9.200;2023-02-13T16:52:25;6.80;46.90
652;DHT22;310;48.490;9.200;2023-02-13T16:54:54;6.90;46.30
652;DHT22;310;48.490;9.200;2023-02-13T16:57:33;6.80;46.60
652;DHT22;310;48.490;9.200;2023-02-13T17:00:19;6.70;46.70
652;DHT22;310;48.490;9.200;2023-02-13T17:02:47;6.50;47.20
652;DHT22;310;48.490;9.200;2023-02-13T17:05:21;6.60;47.00
652;DHT22;310;48.490;9.200;2023-02-13T17:07:50;6.60;47.00
652;DHT22;310;48.490;9.200;2023-02-13T17:10:21;6.60;46.70
652;DHT22;310;48.490;9.200;2023-02-13T17:12:49;6.40;48.20
652;DHT22;310;48.490;9.200;2023-02-13T17:15:18;6.30;48.00
652;DHT22;310;48.490;9.200;2023-02-13T17:17:44;6.40;47.80
652;DHT22;310;48.490;9.200;2023-02-13T17:20:19;6.40;47.50
652;DHT22;310;48.490;9.200;2023-02-13T17:22:47;6.30;47.80
652;DHT22;310;48.490;9.200;2023-02-13T17:25:25;6.10;48.60
652;DHT22;310;48.490;9.200;2023-02-13T17:27:54;6.20;47.90
652;DHT22;310;48.490;9.200;2023-02-13T17:30:28;6.20;48.20
652;DHT22;310;48.490;9.200;2023-02-13T17:32:59;6.20;47.70
652;DHT22;310;48.490;9.200;2023-02-13T17:35:26;6.20;47.90
652;DHT22;310;48.490;9.200;2023-02-13T17:37:52;5.90;48.60
652;DHT22;310;48.490;9.200;2023-02-13T17:40:20;5.90;49.50
652;DHT22;310;48.490;9.200;2023-02-13T17:42:50;6.00;48.40
652;DHT22;310;48.490;9.200;2023-02-13T17:45:18;6.40;47.30
652;DHT22;310;48.490;9.200;2023-02-13T17:47:44;6.10;47.40
652;DHT22;310;48.490;9.200;2023-02-13T17:50:10;6.00;48.00
652;DHT22;310;48.490;9.200;2023-02-13T17:52:37;6.00;47.90
652;DHT22;310;48.490;9.200;2023-02-13T17:55:04;6.10;47.20
652;DHT22;310;48.490;9.200;2023-02-13T17:57:30;6.20;47.00
652;DHT22;310;48.490;9.200;2023-02-13T17:59:55;6.00;47.30
652;DHT22;310;48.490;9.200;2023-02-13T18:02:23;6.40;46.40
652;DHT22;310;48.490;9.200;2023-02-13T18:04:49;6.40;45.60
652;DHT22;310;48.490;9.200;2023-02-13T18:07:19;6.40;45.40
652;DHT22;310;48.490;9.200;2023-02-13T18:09:46;6.40;45.40
652;DHT22;310;48.490;9.200;2023-02-13T18:12:17;6.40;45.20
652;DHT22;310;48.490;9.200;2023-02-13T18:14:43;6.40;44.60
652;DHT22;310;48.490;9.200;2023-02-13T18:17:10;6.40;45.10
652;DHT22;310;48.490;9.200;2023-02-13T18:19:36;6.50;44.80
652;DHT22;310;48.490;9.200;2023-02-13T18:22:03;6.70;44.00
652;DHT22;310;48.490;9.200;2023-02-13T18:24:30;6.90;42.50
652;DHT22;310;48.490;9.200;2023-02-13T18:26:56;6.50;43.70
652;DHT22;310;48.490;9.200;2023-02-13T18:29:23;6.30;44.60
652;DHT22;310;48.490;9.200;2023-02-13T18:31:48;6.20;45.10
652;DHT22;310;48.490;9.200;2023-02-13T18:34:17;6.30;44.50
652;DHT22;310;48.490;9.200;2023-02-13T18:36:42;6.20;44.50
652;DHT22;310;48.490;9.200;2023-02-13T18:39:08;6.00;46.10
652;DHT22;310;48.490;9.200;2023-02-13T18:41:34;5.70;46.70
652;DHT22;310;48.490;9.200;2023-02-13T18:43:59;5.90;46.10
652;DHT22;310;48.490;9.200;2023-02-13T18:46:25;6.10;45.20
652;DHT22;310;48.490;9.200;2023-02-13T18:48:50;6.10;45.10
652;DHT22;310;48.490;9.200;2023-02-13T18:51:16;6.00;45.40
652;DHT22;310;48.490;9.200;2023-02-13T18:53:42;6.10;45.40
652;DHT22;310;48.490;9.200;2023-02-13T18:56:07;6.00;45.40
652;DHT22;310;48.490;9.200;2023-02-13T18:58:34;5.80;45.90
652;DHT22;310;48.490;9.200;2023-02-13T19:01:11;6.10;45.20
652;DHT22;310;48.490;9.200;2023-02-13T19:03:37;6.10;44.50
652;DHT22;310;48.490;9.200;2023-02-13T19:06:08;6.00;45.00
652;DHT22;310;48.490;9.200;2023-02-13T19:08:34;5.80;45.90
652;DHT22;310;48.490;9.200;2023-02-13T19:11:05;5.70;45.90
652;DHT22;310;48.490;9.200;2023-02-13T19:13:31;5.80;45.90
652;DHT22;310;48.490;9.200;2023-02-13T19:16:12;6.00;44.90
652;DHT22;310;48.490;9.200;2023-02-13T19:18:41;6.10;44.80
652;DHT22;310;48.490;9.200;2023-02-13T19:21:07;5.90;44.80
652;DHT22;310;48.490;9.200;2023-02-13T19:23:34;5.80;45.90
652;DHT22;310;48.490;9.200;2023-02-13T19:26:05;5.70;46.60
652;DHT22;310;48.490;9.200;2023-02-13T19:28:31;5.70;45.80
652;DHT22;310;48.490;9.200;2023-02-13T19:31:08;5.30;47.10
652;DHT22;310;48.490;9.200;2023-02-13T19:33:34;5.50;46.50
652;DHT22;310;48.490;9.200;2023-02-13T19:36:03;5.70;45.90
652;DHT22;310;48.490;9.200;2023-02-13T19:38:29;5.60;45.70
652;DHT22;310;48.490;9.200;2023-02-13T19:40:55;5.40;46.20
652;DHT22;310;48.490;9.200;2023-02-13T19:43:21;5.30;47.30
652;DHT22;310;48.490;9.200;2023-02-13T19:45:48;5.50;46.30
652;DHT22;310;48.490;9.200;2023-02-13T19:48:14;5.50;45.60